createdAt,value
2023-04-18T00:00:10.172Z,102270.28
2023-04-18T00:05:18.013Z,102267.06
2023-04-18T00:10:20.724Z,102268.91
2023-04-18T00:15:24.843Z,102267.22
2023-04-18T00:20:27.414Z,102278.28
2023-04-18T00:25:29.971Z,102276.88
2023-04-18T00:30:33.876Z,102274.53
2023-04-18T00:35:38.007Z,102272.75
2023-04-18T00:40:41.025Z,102267.94
2023-04-18T00:45:44.993Z,102267.22
2023-04-18T00:50:47.943Z,102257.75
2023-04-18T00:55:50.776Z,102254.25
2023-04-18T01:00:54.861Z,102251.59
2023-04-18T01:05:57.864Z,102259.34
2023-04-18T01:11:01.051Z,102255.16
2023-04-18T01:16:05.635Z,102254.78
2023-04-18T01:21:08.222Z,102254.38
2023-04-18T01:26:12.551Z,102244.44
2023-04-18T01:31:15.213Z,102237.38
2023-04-18T01:36:17.896Z,102238.41
2023-04-18T01:41:22.213Z,102230.66
2023-04-18T01:46:24.750Z,102225.34
2023-04-18T01:51:28.183Z,102228.63
2023-04-18T01:56:32.544Z,102221.53
2023-04-18T02:01:36.773Z,102220.88
2023-04-18T02:06:39.301Z,102223.44
2023-04-18T02:11:43.315Z,102216.22
2023-04-18T02:16:46.033Z,102221.31
2023-04-18T02:21:48.616Z,102213.38
2023-04-18T02:26:52.515Z,102217.28
2023-04-18T02:31:55.523Z,102216.25
2023-04-18T02:36:58.062Z,102210.13
2023-04-18T02:42:02.007Z,102212.16
2023-04-18T02:47:04.559Z,102213.88
2023-04-18T02:52:07.510Z,102209.75
2023-04-18T02:57:11.644Z,102213.13
2023-04-18T03:02:31.391Z,102214.84
2023-04-18T03:07:40.270Z,102216.66
2023-04-18T03:12:44.158Z,102208.16
2023-04-18T03:17:47.351Z,102213.00
2023-04-18T03:22:51.362Z,102217.22
2023-04-18T03:28:00.733Z,102225.94
2023-04-18T03:33:05.122Z,102215.88
2023-04-18T03:38:08.292Z,102213.75
2023-04-18T03:43:15.689Z,102218.38
2023-04-18T03:48:18.442Z,102221.69
2023-04-18T03:53:22.608Z,102226.44
2023-04-18T03:58:26.609Z,102217.75
2023-04-18T04:03:30.397Z,102230.50
2023-04-18T04:08:33.085Z,102227.41
2023-04-18T04:13:37.133Z,102230.88
2023-04-18T04:18:39.901Z,102231.03
2023-04-18T04:23:43.066Z,102239.75
2023-04-18T04:28:53.380Z,102245.03
2023-04-18T04:33:59.535Z,102240.31
2023-04-18T04:39:04.145Z,102240.13
2023-04-18T04:44:25.752Z,102241.28
2023-04-18T04:49:29.797Z,102258.38
2023-04-18T04:54:32.436Z,102251.06
2023-04-18T04:59:36.505Z,102252.72
2023-04-18T05:04:39.347Z,102254.31
2023-04-18T05:09:41.983Z,102255.50
2023-04-18T05:14:45.886Z,102262.38
2023-04-18T05:19:48.638Z,102259.94
2023-04-18T05:24:51.176Z,102269.03
2023-04-18T05:29:55.755Z,102274.75
2023-04-18T05:34:58.439Z,102283.19
2023-04-18T05:40:01.627Z,102278.28
2023-04-18T05:45:06.479Z,102280.59
2023-04-18T05:50:10.070Z,102290.03
2023-04-18T05:55:12.701Z,102287.09
2023-04-18T06:00:18.559Z,102297.97
2023-04-18T06:05:21.556Z,102296.41
2023-04-18T06:10:25.716Z,102261.03
2023-04-18T06:15:29.737Z,102298.00
2023-04-18T06:20:32.522Z,102304.84
2023-04-18T06:25:35.398Z,102303.03
2023-04-18T06:30:39.418Z,102319.78
2023-04-18T06:35:42.580Z,102309.66
2023-04-18T06:40:45.408Z,102310.28
2023-04-18T06:45:49.408Z,102315.41
2023-04-18T06:50:52.005Z,102319.84
2023-04-18T06:55:54.709Z,102322.13
2023-04-18T07:00:58.657Z,102329.19
2023-04-18T07:06:01.279Z,102322.97
2023-04-18T07:11:04.048Z,102332.13
2023-04-18T07:16:10.236Z,102341.97
2023-04-18T07:21:12.913Z,102315.88
2023-04-18T07:26:16.549Z,102352.25
2023-04-18T07:31:21.099Z,102353.78
2023-04-18T07:36:23.915Z,102361.97
2023-04-18T07:41:26.453Z,102366.41
2023-04-18T07:46:32.222Z,102369.72
2023-04-18T07:51:34.925Z,102371.41
2023-04-18T07:56:37.589Z,102357.13
2023-04-18T08:01:41.469Z,102381.34
2023-04-18T08:06:43.981Z,102375.38
2023-04-18T08:11:46.528Z,102387.16
2023-04-18T08:16:52.027Z,102384.19
2023-04-18T08:21:54.560Z,102384.84
2023-04-18T08:26:57.358Z,102396.13
2023-04-18T08:32:01.378Z,102388.44
2023-04-18T08:37:03.985Z,102391.63
2023-04-18T08:42:07.290Z,102395.53
2023-04-18T08:47:12.616Z,102406.06
2023-04-18T08:52:16.642Z,102400.50
2023-04-18T08:57:26.454Z,102395.00
2023-04-18T09:02:42.289Z,102391.44
2023-04-18T09:07:45.156Z,102387.16
2023-04-18T09:12:50.802Z,102396.84
2023-04-18T09:17:57.773Z,102391.38
2023-04-18T09:23:01.138Z,102399.44
2023-04-18T09:28:06.157Z,102387.78
2023-04-18T09:33:11.090Z,102392.25
2023-04-18T09:38:13.685Z,102398.97
2023-04-18T09:43:20.562Z,102394.41
2023-04-18T09:48:24.468Z,102390.81
2023-04-18T09:53:28.107Z,102387.28
2023-04-18T09:58:33.194Z,102390.44
2023-04-18T10:03:45.389Z,102386.38
2023-04-18T10:08:49.892Z,102376.97
2023-04-18T10:13:56.884Z,102391.22
2023-04-18T10:19:20.919Z,102378.03
2023-04-18T10:24:47.820Z,102377.59
2023-04-18T10:29:52.257Z,102378.13
2023-04-18T10:34:56.217Z,102379.19
2023-04-18T10:40:02.747Z,102385.34
2023-04-18T10:45:20.161Z,102372.59
2023-04-18T10:50:24.398Z,102365.78
2023-04-18T10:55:31.187Z,102365.66
2023-04-18T11:00:34.108Z,102369.59
2023-04-18T11:05:38.055Z,102367.72
2023-04-18T11:10:41.096Z,102362.00
2023-04-18T11:15:44.349Z,102347.19
2023-04-18T11:20:50.126Z,102346.28
2023-04-18T11:25:53.672Z,102350.97
2023-04-18T11:30:58.948Z,102337.53
2023-04-18T11:36:03.631Z,102347.22
2023-04-18T11:41:06.343Z,102345.38
2023-04-18T11:46:08.987Z,102339.63
2023-04-18T11:51:35.799Z,102341.34
2023-04-18T11:56:47.918Z,102343.00
2023-04-18T12:02:12.618Z,102308.13
2023-04-18T12:07:32.818Z,102342.53
2023-04-18T12:12:36.204Z,102349.44
2023-04-18T12:17:39.154Z,102348.75
2023-04-18T12:22:47.249Z,102352.59
2023-04-18T12:27:55.704Z,102340.25
2023-04-18T12:33:00.341Z,102345.00
2023-04-18T12:38:05.675Z,102340.84
2023-04-18T12:43:08.719Z,102340.06
2023-04-18T12:48:11.643Z,102343.94
2023-04-18T12:53:15.593Z,102337.91
2023-04-18T12:58:20.707Z,102338.41
2023-04-18T13:03:24.284Z,102333.63
2023-04-18T13:08:28.346Z,102337.31
2023-04-18T13:13:32.234Z,102332.75
2023-04-18T13:18:36.286Z,102329.75
2023-04-18T13:23:40.351Z,102343.09
2023-04-18T13:28:42.939Z,102328.28
2023-04-18T13:33:45.555Z,102329.88
2023-04-18T13:38:50.128Z,102328.59
2023-04-18T13:43:52.684Z,102323.88
2023-04-18T13:48:55.582Z,102321.19
2023-04-18T13:54:00.999Z,102316.13
2023-04-18T13:59:03.698Z,102316.22
2023-04-18T14:04:06.955Z,102325.28
2023-04-18T14:09:10.937Z,102321.31
2023-04-18T14:14:13.511Z,102315.72
2023-04-18T14:19:18.015Z,102317.19
2023-04-18T14:24:22.025Z,102312.31
2023-04-18T14:29:24.540Z,102304.72
2023-04-18T14:34:27.028Z,102308.03
2023-04-18T14:39:31.323Z,102305.94
2023-04-18T14:44:36.132Z,102304.69
2023-04-18T14:49:38.892Z,102299.34
2023-04-18T14:54:43.850Z,102287.16
2023-04-18T14:59:46.617Z,102293.13
2023-04-18T15:04:49.656Z,102284.34
2023-04-18T15:09:53.621Z,102281.66
2023-04-18T15:14:56.214Z,102285.41
2023-04-18T15:19:59.469Z,102285.16
2023-04-18T15:25:05.519Z,102281.25
2023-04-18T15:30:10.734Z,102281.25
2023-04-18T15:35:13.311Z,102279.03
2023-04-18T15:40:18.159Z,102271.88
2023-04-18T15:45:21.169Z,102266.19
2023-04-18T15:50:24.801Z,102255.38
2023-04-18T15:55:28.821Z,102259.59
2023-04-18T16:00:31.475Z,102249.66
2023-04-18T16:05:33.991Z,102248.47
2023-04-18T16:10:38.110Z,102263.56
2023-04-18T16:15:45.158Z,102252.31
2023-04-18T16:20:48.809Z,102253.31
2023-04-18T16:25:55.016Z,102250.06
2023-04-18T16:30:57.661Z,102220.91
2023-04-18T16:36:02.674Z,102247.97
2023-04-18T16:41:06.592Z,102260.44
2023-04-18T16:46:09.242Z,102248.72
2023-04-18T16:51:13.009Z,102252.47
2023-04-18T16:56:16.924Z,102263.44
2023-04-18T17:01:19.649Z,102262.66
2023-04-18T17:06:24.942Z,102212.28
2023-04-18T17:11:30.004Z,102255.16
2023-04-18T17:16:33.927Z,102254.56
2023-04-18T17:21:37.627Z,102256.38
2023-04-18T17:26:41.831Z,102227.91
2023-04-18T17:31:44.826Z,102259.19
2023-04-18T17:36:47.579Z,102262.00
2023-04-18T17:41:51.578Z,102263.50
2023-04-18T17:46:54.487Z,102268.88
2023-04-18T17:51:59.295Z,102196.91
2023-04-18T17:57:03.630Z,102270.47
2023-04-18T18:02:06.441Z,102277.78
2023-04-18T18:07:09.003Z,102277.19
2023-04-18T18:12:13.426Z,102277.97
2023-04-18T18:17:16.187Z,102276.69
2023-04-18T18:22:18.717Z,102271.22
2023-04-18T18:27:23.425Z,102272.69
2023-04-18T18:32:26.664Z,102281.63
2023-04-18T18:37:31.797Z,102287.28
2023-04-18T18:42:36.387Z,102298.94
2023-04-18T18:47:40.297Z,102293.44
2023-04-18T18:52:43.372Z,102284.56
2023-04-18T18:57:47.706Z,102311.31
2023-04-18T19:02:51.847Z,102315.72
2023-04-18T19:07:55.957Z,102314.91
2023-04-18T19:13:01.625Z,102335.88
2023-04-18T19:18:04.678Z,102335.41
2023-04-18T19:23:07.307Z,102334.81
2023-04-18T19:28:12.747Z,102338.53
2023-04-18T19:33:15.453Z,102341.88
2023-04-18T19:38:18.299Z,102344.19
2023-04-18T19:43:22.367Z,102352.44
2023-04-18T19:48:25.212Z,102349.97
2023-04-18T19:53:27.914Z,102352.31
2023-04-18T19:58:36.316Z,102338.38
2023-04-18T20:03:39.529Z,102353.00
2023-04-18T20:08:42.393Z,102343.31
2023-04-18T20:13:46.417Z,102308.88
2023-04-18T20:18:50.147Z,102357.75
2023-04-18T20:23:53.621Z,102353.63
2023-04-18T20:28:57.548Z,102363.31
2023-04-18T20:34:00.159Z,102360.75
2023-04-18T20:39:03.297Z,102375.81
2023-04-18T20:44:09.881Z,102377.91
2023-04-18T20:49:12.841Z,102375.97
2023-04-18T20:54:15.906Z,102390.22
2023-04-18T20:59:20.282Z,102392.38
2023-04-18T21:04:22.887Z,102389.00
2023-04-18T21:09:25.592Z,102384.38
2023-04-18T21:14:29.932Z,102337.31
2023-04-18T21:19:32.608Z,102391.38
2023-04-18T21:24:35.148Z,102398.25
2023-04-18T21:29:39.122Z,102394.31
2023-04-18T21:34:41.735Z,102401.78
2023-04-18T21:39:45.784Z,102402.00
2023-04-18T21:44:49.739Z,102402.34
2023-04-18T21:49:52.676Z,102401.25
2023-04-18T21:54:55.825Z,102408.28
2023-04-18T21:59:59.923Z,102408.06
2023-04-18T22:05:02.765Z,102404.56
2023-04-18T22:10:07.817Z,102338.22
2023-04-18T22:15:13.344Z,102388.84
2023-04-18T22:20:17.168Z,102395.66
2023-04-18T22:25:19.826Z,102398.94
2023-04-18T22:30:23.822Z,102403.47
2023-04-18T22:35:26.819Z,102405.13
2023-04-18T22:40:29.450Z,102400.44
2023-04-18T22:45:34.174Z,102395.03
2023-04-18T22:50:37.701Z,102403.19
2023-04-18T22:55:41.038Z,102391.63
2023-04-18T23:00:45.427Z,102404.03
2023-04-18T23:05:47.954Z,102394.28
2023-04-18T23:10:50.762Z,102402.00
2023-04-18T23:15:54.699Z,102404.72
2023-04-18T23:20:57.359Z,102400.44
2023-04-18T23:26:00.167Z,102399.47
2023-04-18T23:31:04.084Z,102399.75
2023-04-18T23:36:08.662Z,102403.47
2023-04-18T23:41:11.196Z,102398.47
2023-04-18T23:46:16.105Z,102393.63
2023-04-18T23:51:19.407Z,102386.69
2023-04-18T23:56:23.059Z,102388.47
